sensor_id;sensor_type;location;lat;lon;timestamp;pressure;altitude;pressure_sealevel;temperature;humidity
52745;BME280;38637;49.984;20.426;2022-09-01T00:00:17;99692.38;;;15.62;73.28
52745;BME280;38637;49.984;20.426;2022-09-01T00:02:45;99685.19;;;15.61;73.27
52745;BME280;38637;49.984;20.426;2022-09-01T00:05:10;99686.88;;;15.62;73.40
52745;BME280;38637;49.984;20.426;2022-09-01T00:07:36;99682.19;;;15.62;73.18
52745;BME280;38637;49.984;20.426;2022-09-01T00:10:03;99675.84;;;15.62;72.89
52745;BME280;38637;49.984;20.426;2022-09-01T00:12:29;99678.38;;;15.58;72.93
52745;BME280;38637;49.984;20.426;2022-09-01T00:14:54;99683.88;;;15.58;73.23
52745;BME280;38637;49.984;20.426;2022-09-01T00:17:20;99678.09;;;15.55;73.31
52745;BME280;38637;49.984;20.426;2022-09-01T00:19:45;99680.34;;;15.53;73.65
52745;BME280;38637;49.984;20.426;2022-09-01T00:22:10;99672.34;;;15.51;73.50
52745;BME280;38637;49.984;20.426;2022-09-01T00:24:36;99685.03;;;15.52;73.50
52745;BME280;38637;49.984;20.426;2022-09-01T00:27:01;99673.47;;;15.50;73.63
52745;BME280;38637;49.984;20.426;2022-09-01T00:29:26;99675.91;;;15.52;73.56
52745;BME280;38637;49.984;20.426;2022-09-01T00:31:52;99678.66;;;15.52;73.42
52745;BME280;38637;49.984;20.426;2022-09-01T00:34:17;99677.84;;;15.51;73.20
52745;BME280;38637;49.984;20.426;2022-09-01T00:36:43;99675.97;;;15.47;73.19
52745;BME280;38637;49.984;20.426;2022-09-01T00:39:08;99672.69;;;15.45;73.41
52745;BME280;38637;49.984;20.426;2022-09-01T00:41:34;99668.56;;;15.42;73.46
52745;BME280;38637;49.984;20.426;2022-09-01T00:44:03;99678.78;;;15.36;73.33
52745;BME280;38637;49.984;20.426;2022-09-01T00:46:33;99677.97;;;15.36;73.74
52745;BME280;38637;49.984;20.426;2022-09-01T00:49:07;99663.63;;;15.39;73.64
52745;BME280;38637;49.984;20.426;2022-09-01T00:51:33;99676.81;;;15.42;73.50
52745;BME280;38637;49.984;20.426;2022-09-01T00:54:01;99665.53;;;15.44;73.10
52745;BME280;38637;49.984;20.426;2022-09-01T00:56:27;99665.81;;;15.42;73.16
52745;BME280;38637;49.984;20.426;2022-09-01T00:58:52;99654.81;;;15.42;73.16
52745;BME280;38637;49.984;20.426;2022-09-01T01:01:18;99662.78;;;15.44;72.86
52745;BME280;38637;49.984;20.426;2022-09-01T01:03:44;99664.19;;;15.41;73.01
52745;BME280;38637;49.984;20.426;2022-09-01T01:06:11;99669.19;;;15.34;73.52
52745;BME280;38637;49.984;20.426;2022-09-01T01:08:39;99670.03;;;15.29;73.80
52745;BME280;38637;49.984;20.426;2022-09-01T01:11:12;99667.84;;;15.26;73.81
52745;BME280;38637;49.984;20.426;2022-09-01T01:16:16;99667.03;;;15.26;74.36
52745;BME280;38637;49.984;20.426;2022-09-01T01:18:41;99667.06;;;15.21;74.36
52745;BME280;38637;49.984;20.426;2022-09-01T01:21:08;99670.44;;;15.12;74.48
52745;BME280;38637;49.984;20.426;2022-09-01T01:24:08;99668.25;;;15.09;74.65
52745;BME280;38637;49.984;20.426;2022-09-01T01:26:34;99672.09;;;15.08;74.75
52745;BME280;38637;49.984;20.426;2022-09-01T01:29:01;99670.72;;;15.06;75.39
52745;BME280;38637;49.984;20.426;2022-09-01T01:31:26;99672.66;;;15.05;75.23
52745;BME280;38637;49.984;20.426;2022-09-01T01:33:53;99667.72;;;15.02;75.36
52745;BME280;38637;49.984;20.426;2022-09-01T01:38:45;99667.72;;;15.02;75.69
52745;BME280;38637;49.984;20.426;2022-09-01T01:41:11;99666.63;;;15.03;76.06
52745;BME280;38637;49.984;20.426;2022-09-01T01:43:37;99677.09;;;15.01;75.65
52745;BME280;38637;49.984;20.426;2022-09-01T01:46:03;99676.03;;;14.97;75.71
52745;BME280;38637;49.984;20.426;2022-09-01T01:48:29;99639.88;;;14.69;75.62
52745;BME280;38637;49.984;20.426;2022-09-01T01:50:59;99673.28;;;14.92;75.68
52745;BME280;38637;49.984;20.426;2022-09-01T01:53:25;99674.41;;;14.91;75.72
52745;BME280;38637;49.984;20.426;2022-09-01T01:55:51;99664.78;;;14.88;75.55
52745;BME280;38637;49.984;20.426;2022-09-01T01:58:16;99663.97;;;14.88;75.47
52745;BME280;38637;49.984;20.426;2022-09-01T02:00:44;99666.97;;;14.86;75.53
52745;BME280;38637;49.984;20.426;2022-09-01T02:03:10;99661.22;;;14.88;75.49
52745;BME280;38637;49.984;20.426;2022-09-01T02:05:43;99661.47;;;14.86;75.27
52745;BME280;38637;49.984;20.426;2022-09-01T02:08:09;99667.53;;;14.88;75.19
52745;BME280;38637;49.984;20.426;2022-09-01T02:10:39;99673.03;;;14.88;75.18
52745;BME280;38637;49.984;20.426;2022-09-01T02:13:06;99667.53;;;14.88;75.34
52745;BME280;38637;49.984;20.426;2022-09-01T02:15:33;99667.22;;;14.90;75.41
52745;BME280;38637;49.984;20.426;2022-09-01T02:18:03;99672.72;;;14.90;75.25
52745;BME280;38637;49.984;20.426;2022-09-01T02:20:28;99674.66;;;14.89;75.44
52745;BME280;38637;49.984;20.426;2022-09-01T02:22:56;99671.66;;;14.86;75.32
52745;BME280;38637;49.984;20.426;2022-09-01T02:25:21;99671.66;;;14.86;75.12
52745;BME280;38637;49.984;20.426;2022-09-01T02:27:47;99671.94;;;14.84;75.03
52745;BME280;38637;49.984;20.426;2022-09-01T02:30:17;99674.16;;;14.82;75.04
52745;BME280;38637;49.984;20.426;2022-09-01T02:32:42;99667.84;;;14.77;75.16
52745;BME280;38637;49.984;20.426;2022-09-01T02:35:08;99668.44;;;14.74;75.26
52745;BME280;38637;49.984;20.426;2022-09-01T02:37:34;99667.06;;;14.71;75.24
52745;BME280;38637;49.984;20.426;2022-09-01T02:39:59;99669.00;;;14.70;75.29
52745;BME280;38637;49.984;20.426;2022-09-01T02:42:26;99670.91;;;14.70;75.48
52745;BME280;38637;49.984;20.426;2022-09-01T02:44:55;99677.22;;;14.70;75.32
52745;BME280;38637;49.984;20.426;2022-09-01T02:47:21;99673.41;;;14.66;75.61
52745;BME280;38637;49.984;20.426;2022-09-01T02:49:48;99670.13;;;14.64;75.43
52745;BME280;38637;49.984;20.426;2022-09-01T02:52:14;99673.13;;;14.63;76.05
52745;BME280;38637;49.984;20.426;2022-09-01T02:54:42;99675.34;;;14.61;76.38
52745;BME280;38637;49.984;20.426;2022-09-01T02:57:09;99673.44;;;14.56;76.24
52745;BME280;38637;49.984;20.426;2022-09-01T02:59:35;99673.44;;;14.56;76.40
52745;BME280;38637;49.984;20.426;2022-09-01T03:02:01;99662.44;;;14.56;76.35
52745;BME280;38637;49.984;20.426;2022-09-01T03:04:26;99663.81;;;14.54;76.50
52745;BME280;38637;49.984;20.426;2022-09-01T03:06:53;99670.72;;;14.51;76.50
52745;BME280;38637;49.984;20.426;2022-09-01T03:09:19;99669.06;;;14.55;76.43
52745;BME280;38637;49.984;20.426;2022-09-01T03:11:46;99663.56;;;14.55;76.36
52745;BME280;38637;49.984;20.426;2022-09-01T03:14:11;99658.88;;;14.56;76.38
52745;BME280;38637;49.984;20.426;2022-09-01T03:16:37;99650.38;;;14.57;76.06
52745;BME280;38637;49.984;20.426;2022-09-01T03:19:03;99656.94;;;14.56;76.14
52745;BME280;38637;49.984;20.426;2022-09-01T03:21:31;99656.69;;;14.58;76.18
52745;BME280;38637;49.984;20.426;2022-09-01T03:23:56;99654.44;;;14.60;76.12
52745;BME280;38637;49.984;20.426;2022-09-01T03:26:22;99657.19;;;14.60;75.99
52745;BME280;38637;49.984;20.426;2022-09-01T03:28:48;99662.44;;;14.61;76.07
52745;BME280;38637;49.984;20.426;2022-09-01T03:31:14;99664.63;;;14.59;76.21
52745;BME280;38637;49.984;20.426;2022-09-01T03:33:40;99650.63;;;14.61;76.04
52745;BME280;38637;49.984;20.426;2022-09-01T03:36:06;99657.47;;;14.63;75.99
52745;BME280;38637;49.984;20.426;2022-09-01T03:38:32;99659.13;;;14.64;75.77
52745;BME280;38637;49.984;20.426;2022-09-01T03:40:59;99656.38;;;14.59;75.95
52745;BME280;38637;49.984;20.426;2022-09-01T03:43:26;99655.88;;;14.57;75.93
52745;BME280;38637;49.984;20.426;2022-09-01T03:45:51;99658.88;;;14.56;75.89
52745;BME280;38637;49.984;20.426;2022-09-01T03:48:19;99654.50;;;14.55;76.08
52745;BME280;38637;49.984;20.426;2022-09-01T03:50:45;99664.13;;;14.52;75.96
52745;BME280;38637;49.984;20.426;2022-09-01T03:53:15;99659.97;;;14.49;76.16
52745;BME280;38637;49.984;20.426;2022-09-01T03:55:42;99666.84;;;14.47;76.28
52745;BME280;38637;49.984;20.426;2022-09-01T03:58:09;99662.47;;;14.46;76.39
52745;BME280;38637;49.984;20.426;2022-09-01T04:00:38;99670.69;;;14.46;76.70
52745;BME280;38637;49.984;20.426;2022-09-01T04:03:04;99670.69;;;14.46;76.66
52745;BME280;38637;49.984;20.426;2022-09-01T04:05:31;99669.59;;;14.47;76.68
52745;BME280;38637;49.984;20.426;2022-09-01T04:07:58;99667.94;;;14.46;76.73
52745;BME280;38637;49.984;20.426;2022-09-01T04:10:28;99670.69;;;14.46;76.74
52745;BME280;38637;49.984;20.426;2022-09-01T04:12:53;99667.66;;;14.47;76.86
52745;BME280;38637;49.984;20.426;2022-09-01T04:15:21;99663.53;;;14.50;76.85
52745;BME280;38637;49.984;20.426;2022-09-01T04:17:46;99664.94;;;14.53;76.66
52745;BME280;38637;49.984;20.426;2022-09-01T04:20:31;99664.13;;;14.52;76.66
52745;BME280;38637;49.984;20.426;2022-09-01T04:23:04;99675.38;;;14.45;76.71
52745;BME280;38637;49.984;20.426;2022-09-01T04:25:34;99682.25;;;14.43;77.04
52745;BME280;38637;49.984;20.426;2022-09-01T04:28:01;99680.06;;;14.40;77.24
52745;BME280;38637;49.984;20.426;2022-09-01T04:30:38;99678.69;;;14.37;77.36
52745;BME280;38637;49.984;20.426;2022-09-01T04:33:05;99670.19;;;14.34;77.40
52745;BME280;38637;49.984;20.426;2022-09-01T04:35:30;99669.06;;;14.35;77.56
52745;BME280;38637;49.984;20.426;2022-09-01T04:37:56;99683.91;;;14.39;77.65
52745;BME280;38637;49.984;20.426;2022-09-01T04:40:21;99676.19;;;14.41;77.51
52745;BME280;38637;49.984;20.426;2022-09-01T04:42:47;99681.44;;;14.42;77.64
52745;BME280;38637;49.984;20.426;2022-09-01T04:45:13;99683.06;;;14.43;77.72
52745;BME280;38637;49.984;20.426;2022-09-01T04:47:39;99680.88;;;14.45;77.80
52745;BME280;38637;49.984;20.426;2022-09-01T04:50:07;99685.00;;;14.48;77.65
52745;BME280;38637;49.984;20.426;2022-09-01T04:52:37;99678.41;;;14.54;77.66
52745;BME280;38637;49.984;20.426;2022-09-01T04:55:03;99684.97;;;14.58;77.36
52745;BME280;38637;49.984;20.426;2022-09-01T04:57:28;99682.22;;;14.63;77.36
52745;BME280;38637;49.984;20.426;2022-09-01T04:59:54;99648.41;;;14.47;77.20
52745;BME280;38637;49.984;20.426;2022-09-01T05:02:20;99687.69;;;14.68;77.28
52745;BME280;38637;49.984;20.426;2022-09-01T05:04:50;99686.28;;;14.71;77.19
52745;BME280;38637;49.984;20.426;2022-09-01T05:07:19;99686.56;;;14.75;77.03
52745;BME280;38637;49.984;20.426;2022-09-01T05:09:45;99688.75;;;14.78;77.13
52745;BME280;38637;49.984;20.426;2022-09-01T05:12:10;99690.94;;;14.81;76.92
52745;BME280;38637;49.984;20.426;2022-09-01T05:14:39;99687.34;;;14.85;76.65
52745;BME280;38637;49.984;20.426;2022-09-01T05:17:06;99690.91;;;14.91;76.62
52745;BME280;38637;49.984;20.426;2022-09-01T05:19:34;99687.03;;;14.92;76.26
52745;BME280;38637;49.984;20.426;2022-09-01T05:22:00;99683.47;;;14.91;75.92
52745;BME280;38637;49.984;20.426;2022-09-01T05:24:27;99682.91;;;14.94;76.15
52745;BME280;38637;49.984;20.426;2022-09-01T05:26:54;99687.00;;;14.97;75.78
52745;BME280;38637;49.984;20.426;2022-09-01T05:29:19;99691.38;;;15.03;75.54
52745;BME280;38637;49.984;20.426;2022-09-01T05:31:45;99689.97;;;15.06;75.33
52745;BME280;38637;49.984;20.426;2022-09-01T05:34:11;99694.91;;;15.09;75.11
52745;BME280;38637;49.984;20.426;2022-09-01T05:36:37;99696.28;;;15.11;75.19
52745;BME280;38637;49.984;20.426;2022-09-01T05:39:05;99694.63;;;15.15;75.23
52745;BME280;38637;49.984;20.426;2022-09-01T05:41:31;99691.78;;;15.26;75.26
52745;BME280;38637;49.984;20.426;2022-09-01T05:43:58;99699.47;;;15.34;74.81
52745;BME280;38637;49.984;20.426;2022-09-01T05:46:24;99696.09;;;15.42;74.60
52745;BME280;38637;49.984;20.426;2022-09-01T05:48:51;99691.84;;;15.55;73.99
52745;BME280;38637;49.984;20.426;2022-09-01T05:51:17;99688.50;;;15.63;72.22
52745;BME280;38637;49.984;20.426;2022-09-01T05:53:44;99696.47;;;15.70;73.05
52745;BME280;38637;49.984;20.426;2022-09-01T05:56:11;99691.97;;;15.79;72.81
52745;BME280;38637;49.984;20.426;2022-09-01T05:58:37;99692.75;;;15.84;72.75
52745;BME280;38637;49.984;20.426;2022-09-01T06:01:03;99702.59;;;15.96;73.07
52745;BME280;38637;49.984;20.426;2022-09-01T06:03:29;99704.16;;;16.07;72.29
52745;BME280;38637;49.984;20.426;2022-09-01T06:06:00;99709.31;;;16.14;70.82
52745;BME280;38637;49.984;20.426;2022-09-01T06:08:25;99707.34;;;16.19;71.17
52745;BME280;38637;49.984;20.426;2022-09-01T06:10:53;99711.97;;;16.24;71.35
52745;BME280;38637;49.984;20.426;2022-09-01T06:13:18;99703.66;;;16.29;71.28
52745;BME280;38637;49.984;20.426;2022-09-01T06:15:46;99709.63;;;16.36;70.94
52745;BME280;38637;49.984;20.426;2022-09-01T06:18:12;99708.78;;;16.41;71.00
52745;BME280;38637;49.984;20.426;2022-09-01T06:20:42;99708.19;;;16.44;70.25
52745;BME280;38637;49.984;20.426;2022-09-01T06:23:08;99700.44;;;16.46;70.21
52745;BME280;38637;49.984;20.426;2022-09-01T06:25:37;99707.84;;;16.50;69.25
52745;BME280;38637;49.984;20.426;2022-09-01T06:28:04;99706.13;;;16.54;69.53
52745;BME280;38637;49.984;20.426;2022-09-01T06:30:29;99708.28;;;16.58;69.06
52745;BME280;38637;49.984;20.426;2022-09-01T06:32:57;99699.22;;;16.57;69.10
52745;BME280;38637;49.984;20.426;2022-09-01T06:35:25;99710.06;;;16.72;66.78
52745;BME280;38637;49.984;20.426;2022-09-01T06:37:53;99713.88;;;16.76;67.64
52745;BME280;38637;49.984;20.426;2022-09-01T06:40:20;99703.94;;;16.81;66.87
52745;BME280;38637;49.984;20.426;2022-09-01T06:42:46;99703.34;;;16.84;67.23
52745;BME280;38637;49.984;20.426;2022-09-01T06:45:15;99705.50;;;16.87;67.19
52745;BME280;38637;49.984;20.426;2022-09-01T06:47:42;99711.53;;;16.89;65.79
52745;BME280;38637;49.984;20.426;2022-09-01T06:50:09;99705.75;;;16.90;66.24
52745;BME280;38637;49.984;20.426;2022-09-01T06:52:35;99711.25;;;16.90;66.27
52745;BME280;38637;49.984;20.426;2022-09-01T06:55:00;99714.25;;;16.94;66.63
52745;BME280;38637;49.984;20.426;2022-09-01T06:57:25;99707.00;;;16.98;66.02
52745;BME280;38637;49.984;20.426;2022-09-01T06:59:51;99715.22;;;17.03;66.40
52745;BME280;38637;49.984;20.426;2022-09-01T07:02:18;99729.56;;;17.05;65.19
52745;BME280;38637;49.984;20.426;2022-09-01T07:04:43;99732.22;;;17.10;65.64
52745;BME280;38637;49.984;20.426;2022-09-01T07:07:10;99736.66;;;17.11;65.18
52745;BME280;38637;49.984;20.426;2022-09-01T07:09:36;99743.22;;;17.15;65.72
52745;BME280;38637;49.984;20.426;2022-09-01T07:12:02;99734.56;;;17.22;65.67
52745;BME280;38637;49.984;20.426;2022-09-01T07:14:28;99736.44;;;17.27;65.13
52745;BME280;38637;49.984;20.426;2022-09-01T07:16:53;99742.19;;;17.30;64.46
52745;BME280;38637;49.984;20.426;2022-09-01T07:19:19;99730.00;;;17.31;64.75
52745;BME280;38637;49.984;20.426;2022-09-01T07:21:46;99735.47;;;17.36;64.65
52745;BME280;38637;49.984;20.426;2022-09-01T07:24:11;99738.13;;;17.41;64.68
52745;BME280;38637;49.984;20.426;2022-09-01T07:26:38;99730.09;;;17.45;63.74
52745;BME280;38637;49.984;20.426;2022-09-01T07:29:04;99742.47;;;17.48;63.24
52745;BME280;38637;49.984;20.426;2022-09-01T07:31:34;99744.41;;;17.47;63.40
52745;BME280;38637;49.984;20.426;2022-09-01T07:34:01;99742.78;;;17.46;63.73
52745;BME280;38637;49.984;20.426;2022-09-01T07:36:28;99732.78;;;17.50;63.68
52745;BME280;38637;49.984;20.426;2022-09-01T07:38:53;99736.06;;;17.52;63.94
52745;BME280;38637;49.984;20.426;2022-09-01T07:41:19;99735.25;;;17.52;63.52
52745;BME280;38637;49.984;20.426;2022-09-01T07:43:45;99724.72;;;17.54;63.10
52745;BME280;38637;49.984;20.426;2022-09-01T07:46:11;99719.13;;;17.59;63.21
52745;BME280;38637;49.984;20.426;2022-09-01T07:48:36;99718.53;;;17.62;63.20
52745;BME280;38637;49.984;20.426;2022-09-01T07:51:02;99729.72;;;17.71;63.21
52745;BME280;38637;49.984;20.426;2022-09-01T07:53:30;99717.84;;;17.70;62.82
52745;BME280;38637;49.984;20.426;2022-09-01T07:55:56;99715.00;;;17.75;62.04
52745;BME280;38637;49.984;20.426;2022-09-01T07:58:24;99724.03;;;17.81;61.97
52745;BME280;38637;49.984;20.426;2022-09-01T08:00:50;99720.09;;;17.87;62.21
52745;BME280;38637;49.984;20.426;2022-09-01T08:03:18;99717.78;;;17.94;61.76
52745;BME280;38637;49.984;20.426;2022-09-01T08:05:43;99716.63;;;17.95;61.48
52745;BME280;38637;49.984;20.426;2022-09-01T08:08:09;99713.34;;;17.93;62.02
52745;BME280;38637;49.984;20.426;2022-09-01T08:10:38;99719.41;;;17.95;62.22
52745;BME280;38637;49.984;20.426;2022-09-01T08:13:04;99716.84;;;17.99;62.64
52745;BME280;38637;49.984;20.426;2022-09-01T08:15:29;99727.97;;;17.94;59.85
52745;BME280;38637;49.984;20.426;2022-09-01T08:17:55;99720.00;;;17.92;60.52
52745;BME280;38637;49.984;20.426;2022-09-01T08:20:20;99715.00;;;17.94;61.18
52745;BME280;38637;49.984;20.426;2022-09-01T08:22:45;99728.72;;;17.99;61.94
52745;BME280;38637;49.984;20.426;2022-09-01T08:25:11;99723.94;;;18.05;61.71
52745;BME280;38637;49.984;20.426;2022-09-01T08:27:36;99718.81;;;18.12;61.58
52745;BME280;38637;49.984;20.426;2022-09-01T08:30:06;99724.59;;;18.16;60.66
52745;BME280;38637;49.984;20.426;2022-09-01T08:32:32;99717.13;;;18.16;61.12
52745;BME280;38637;49.984;20.426;2022-09-01T08:34:58;99715.69;;;18.19;61.18
52745;BME280;38637;49.984;20.426;2022-09-01T08:37:23;99716.38;;;18.24;61.63
52745;BME280;38637;49.984;20.426;2022-09-01T08:39:49;99712.41;;;18.30;61.66
52745;BME280;38637;49.984;20.426;2022-09-01T08:44:57;99713.88;;;18.28;60.86
52745;BME280;38637;49.984;20.426;2022-09-01T08:47:26;99724.59;;;18.29;59.89
52745;BME280;38637;49.984;20.426;2022-09-01T08:49:52;99716.84;;;18.31;60.44
52745;BME280;38637;49.984;20.426;2022-09-01T08:59:58;99710.91;;;18.38;60.53
52745;BME280;38637;49.984;20.426;2022-09-01T09:02:38;99714.41;;;18.44;60.46
52745;BME280;38637;49.984;20.426;2022-09-01T09:05:16;99710.59;;;18.53;59.02
52745;BME280;38637;49.984;20.426;2022-09-01T09:10:16;99711.25;;;18.64;57.31
52745;BME280;38637;49.984;20.426;2022-09-01T09:15:32;99712.06;;;18.65;55.19
52745;BME280;38637;49.984;20.426;2022-09-01T09:18:19;99701.72;;;18.70;54.54
52745;BME280;38637;49.984;20.426;2022-09-01T09:20:49;99695.88;;;18.72;54.21
52745;BME280;38637;49.984;20.426;2022-09-01T09:23:37;99690.25;;;18.77;53.49
52745;BME280;38637;49.984;20.426;2022-09-01T09:26:00;99696.19;;;18.84;53.32
52745;BME280;38637;49.984;20.426;2022-09-01T09:28:26;99697.63;;;18.95;52.07
52745;BME280;38637;49.984;20.426;2022-09-01T09:31:14;99703.25;;;19.04;53.36
52745;BME280;38637;49.984;20.426;2022-09-01T09:33:37;99693.09;;;19.13;52.78
52745;BME280;38637;49.984;20.426;2022-09-01T09:36:19;99690.38;;;19.22;51.99
52745;BME280;38637;49.984;20.426;2022-09-01T09:38:45;99683.41;;;19.24;51.77
52745;BME280;38637;49.984;20.426;2022-09-01T09:41:15;99685.44;;;19.33;52.65
52745;BME280;38637;49.984;20.426;2022-09-01T09:43:57;99693.03;;;19.41;51.75
52745;BME280;38637;49.984;20.426;2022-09-01T09:49:05;99684.53;;;19.60;52.84
52745;BME280;38637;49.984;20.426;2022-09-01T09:51:30;99690.38;;;19.72;50.50
52745;BME280;38637;49.984;20.426;2022-09-01T09:54:09;99684.91;;;19.81;50.48
52745;BME280;38637;49.984;20.426;2022-09-01T09:56:34;99691.94;;;19.87;49.84
52745;BME280;38637;49.984;20.426;2022-09-01T09:58:59;99688.56;;;19.98;50.79
52745;BME280;38637;49.984;20.426;2022-09-01T10:03:54;99680.00;;;20.09;48.71
52745;BME280;38637;49.984;20.426;2022-09-01T10:06:34;99679.72;;;20.19;48.42
52745;BME280;38637;49.984;20.426;2022-09-01T10:09:05;99677.66;;;20.25;47.56
52745;BME280;38637;49.984;20.426;2022-09-01T10:11:39;99682.44;;;20.33;46.11
52745;BME280;38637;49.984;20.426;2022-09-01T10:14:06;99679.19;;;20.39;45.88
52745;BME280;38637;49.984;20.426;2022-09-01T10:16:33;99679.88;;;20.45;46.15
52745;BME280;38637;49.984;20.426;2022-09-01T10:19:01;99672.53;;;20.49;44.43
52745;BME280;38637;49.984;20.426;2022-09-01T10:21:27;99667.19;;;20.53;46.44
52745;BME280;38637;49.984;20.426;2022-09-01T10:23:54;99664.63;;;20.65;46.38
52745;BME280;38637;49.984;20.426;2022-09-01T10:26:23;99663.19;;;20.76;46.27
52745;BME280;38637;49.984;20.426;2022-09-01T10:31:15;99667.00;;;20.98;46.10
52745;BME280;38637;49.984;20.426;2022-09-01T10:33:41;99669.28;;;21.04;46.30
52745;BME280;38637;49.984;20.426;2022-09-01T10:36:06;99671.09;;;21.00;45.28
52745;BME280;38637;49.984;20.426;2022-09-01T10:38:32;99665.19;;;20.93;45.77
52745;BME280;38637;49.984;20.426;2022-09-01T10:40:57;99661.44;;;20.98;46.70
52745;BME280;38637;49.984;20.426;2022-09-01T10:43:33;99654.25;;;21.05;45.73
52745;BME280;38637;49.984;20.426;2022-09-01T10:46:00;99650.34;;;21.06;46.44
52745;BME280;38637;49.984;20.426;2022-09-01T10:48:32;99665.69;;;21.04;44.64
52745;BME280;38637;49.984;20.426;2022-09-01T11:01:36;99651.91;;;20.81;46.78
52745;BME280;38637;49.984;20.426;2022-09-01T11:04:03;99654.38;;;20.83;46.78
52745;BME280;38637;49.984;20.426;2022-09-01T11:08:57;99659.09;;;20.74;47.33
52745;BME280;38637;49.984;20.426;2022-09-01T11:11:29;99648.13;;;20.69;45.11
52745;BME280;38637;49.984;20.426;2022-09-01T11:13:56;99656.28;;;20.65;45.85
52745;BME280;38637;49.984;20.426;2022-09-01T11:18:54;99652.84;;;20.59;45.76
52745;BME280;38637;49.984;20.426;2022-09-01T11:21:24;99653.66;;;20.60;47.12
52745;BME280;38637;49.984;20.426;2022-09-01T11:23:50;99644.22;;;20.61;47.12
52745;BME280;38637;49.984;20.426;2022-09-01T11:28:56;99654.63;;;20.55;45.44
52745;BME280;38637;49.984;20.426;2022-09-01T11:31:36;99646.81;;;20.57;46.23
52745;BME280;38637;49.984;20.426;2022-09-01T11:34:14;99646.19;;;20.60;46.32
52745;BME280;38637;49.984;20.426;2022-09-01T11:44:16;99627.97;;;20.94;42.75
52745;BME280;38637;49.984;20.426;2022-09-01T11:46:44;99635.81;;;21.09;41.93
52745;BME280;38637;49.984;20.426;2022-09-01T11:49:45;99636.97;;;21.26;42.43
52745;BME280;38637;49.984;20.426;2022-09-01T11:52:02;99630.75;;;21.29;41.45
52745;BME280;38637;49.984;20.426;2022-09-01T11:54:28;99634.53;;;21.24;41.11
52745;BME280;38637;49.984;20.426;2022-09-01T11:56:54;99627.66;;;21.22;42.08
52745;BME280;38637;49.984;20.426;2022-09-01T11:59:32;99630.44;;;21.13;40.75
52745;BME280;38637;49.984;20.426;2022-09-01T12:01:58;99631.22;;;21.05;41.33
52745;BME280;38637;49.984;20.426;2022-09-01T12:04:25;99641.38;;;21.01;41.68
52745;BME280;38637;49.984;20.426;2022-09-01T12:06:56;99626.31;;;20.93;40.21
52745;BME280;38637;49.984;20.426;2022-09-01T12:09:30;99635.28;;;20.90;40.37
52745;BME280;38637;49.984;20.426;2022-09-01T12:11:55;99624.69;;;20.92;41.39
52745;BME280;38637;49.984;20.426;2022-09-01T12:14:21;99625.69;;;21.05;41.38
52745;BME280;38637;49.984;20.426;2022-09-01T12:16:55;99623.56;;;21.19;40.16
52745;BME280;38637;49.984;20.426;2022-09-01T12:19:21;99629.44;;;21.35;40.91
52745;BME280;38637;49.984;20.426;2022-09-01T12:21:54;99624.91;;;21.48;42.00
52745;BME280;38637;49.984;20.426;2022-09-01T12:24:22;99618.03;;;21.54;41.09
52745;BME280;38637;49.984;20.426;2022-09-01T12:26:49;99614.06;;;21.64;39.04
52745;BME280;38637;49.984;20.426;2022-09-01T12:29:15;99613.75;;;21.65;39.44
52745;BME280;38637;49.984;20.426;2022-09-01T12:31:42;99606.06;;;21.71;38.83
52745;BME280;38637;49.984;20.426;2022-09-01T12:37:17;99617.34;;;21.66;37.97
52745;BME280;38637;49.984;20.426;2022-09-01T12:39:44;99613.78;;;21.56;38.90
52745;BME280;38637;49.984;20.426;2022-09-01T12:50:45;99615.72;;;21.13;38.22
52745;BME280;38637;49.984;20.426;2022-09-01T12:52:54;99608.38;;;21.08;38.96
52745;BME280;38637;49.984;20.426;2022-09-01T12:55:32;99611.78;;;21.05;39.43
52745;BME280;38637;49.984;20.426;2022-09-01T12:57:59;99607.06;;;21.05;38.34
52745;BME280;38637;49.984;20.426;2022-09-01T13:00:27;99611.97;;;21.00;37.11
52745;BME280;38637;49.984;20.426;2022-09-01T13:05:24;99604.78;;;21.07;36.62
52745;BME280;38637;49.984;20.426;2022-09-01T13:07:57;99606.09;;;21.19;36.58
52745;BME280;38637;49.984;20.426;2022-09-01T13:10:24;99611.81;;;21.22;36.98
52745;BME280;38637;49.984;20.426;2022-09-01T13:12:52;99598.09;;;21.26;37.94
52745;BME280;38637;49.984;20.426;2022-09-01T13:15:17;99617.53;;;21.26;37.26
52745;BME280;38637;49.984;20.426;2022-09-01T13:17:43;99620.16;;;21.31;37.29
52745;BME280;38637;49.984;20.426;2022-09-01T13:20:08;99613.31;;;21.37;37.63
52745;BME280;38637;49.984;20.426;2022-09-01T13:22:36;99607.25;;;21.44;36.16
52745;BME280;38637;49.984;20.426;2022-09-01T13:25:02;99606.91;;;21.54;37.77
52745;BME280;38637;49.984;20.426;2022-09-01T13:27:27;99605.75;;;21.64;37.05
52745;BME280;38637;49.984;20.426;2022-09-01T13:29:52;99607.03;;;21.75;35.24
52745;BME280;38637;49.984;20.426;2022-09-01T13:32:18;99605.72;;;21.81;36.03
52745;BME280;38637;49.984;20.426;2022-09-01T13:34:46;99603.75;;;21.82;33.51
52745;BME280;38637;49.984;20.426;2022-09-01T13:39:37;99610.97;;;21.65;33.42
52745;BME280;38637;49.984;20.426;2022-09-01T13:42:05;99603.81;;;21.55;34.20
52745;BME280;38637;49.984;20.426;2022-09-01T13:44:34;99602.34;;;21.58;34.95
52745;BME280;38637;49.984;20.426;2022-09-01T13:46:59;99603.97;;;21.59;32.78
52745;BME280;38637;49.984;20.426;2022-09-01T13:49:24;99609.53;;;21.59;33.25
52745;BME280;38637;49.984;20.426;2022-09-01T13:51:50;99604.78;;;21.60;33.97
52745;BME280;38637;49.984;20.426;2022-09-01T13:54:16;99595.47;;;21.55;33.46
52745;BME280;38637;49.984;20.426;2022-09-01T13:56:41;99607.09;;;21.49;34.09
52745;BME280;38637;49.984;20.426;2022-09-01T13:59:07;99602.81;;;21.51;34.98
52745;BME280;38637;49.984;20.426;2022-09-01T14:01:33;99596.94;;;21.53;34.06